createdAt,value
2023-01-11T00:00:39.177Z,5.60
2023-01-11T00:03:06.754Z,5.25
2023-01-11T00:05:38.327Z,5.93
2023-01-11T00:08:05.976Z,6.35
2023-01-11T00:10:33.498Z,5.93
2023-01-11T00:13:01.742Z,5.88
2023-01-11T00:15:28.502Z,6.53
2023-01-11T00:17:55.510Z,5.60
2023-01-11T00:20:22.312Z,5.18
2023-01-11T00:22:49.055Z,5.85
2023-01-11T00:25:15.851Z,5.65
2023-01-11T00:27:42.618Z,5.88
2023-01-11T00:30:10.104Z,5.57
2023-01-11T00:32:36.808Z,5.72
2023-01-11T00:35:03.724Z,5.60
2023-01-11T00:37:30.488Z,6.47
2023-01-11T00:39:57.137Z,6.85
2023-01-11T00:42:42.266Z,6.28
2023-01-11T00:45:27.882Z,7.13
2023-01-11T00:47:57.685Z,6.65
2023-01-11T00:50:30.913Z,6.53
2023-01-11T00:52:59.136Z,5.35
2023-01-11T00:55:26.810Z,5.80
2023-01-11T00:57:54.846Z,6.15
2023-01-11T01:00:22.203Z,5.78
2023-01-11T01:02:49.626Z,5.90
2023-01-11T01:05:17.224Z,6.22
2023-01-11T01:07:44.357Z,5.88
2023-01-11T01:10:12.981Z,5.82
2023-01-11T01:12:58.207Z,6.18
2023-01-11T01:15:25.409Z,6.47
2023-01-11T01:17:56.006Z,5.25
2023-01-11T01:20:24.306Z,6.18
2023-01-11T01:22:51.028Z,6.43
2023-01-11T01:25:18.267Z,5.80
2023-01-11T01:27:45.141Z,6.00
2023-01-11T01:30:12.185Z,6.43
2023-01-11T01:32:39.618Z,6.15
2023-01-11T01:35:07.059Z,5.72
2023-01-11T01:37:33.714Z,5.97
2023-01-11T01:40:00.418Z,6.28
2023-01-11T01:42:27.211Z,5.68
2023-01-11T01:45:07.274Z,5.55
2023-01-11T01:47:45.670Z,6.32
2023-01-11T01:50:20.248Z,5.72
2023-01-11T01:52:51.830Z,5.50
2023-01-11T01:55:26.417Z,5.55
2023-01-11T01:57:55.035Z,5.40
2023-01-11T02:00:21.989Z,6.05
2023-01-11T02:02:49.624Z,6.40
2023-01-11T02:05:17.506Z,5.70
2023-01-11T02:07:46.305Z,6.13
2023-01-11T02:10:16.607Z,6.35
2023-01-11T02:13:14.442Z,6.43
2023-01-11T02:15:41.260Z,6.50
2023-01-11T02:18:13.862Z,5.65
2023-01-11T02:20:49.542Z,6.05
2023-01-11T02:26:07.871Z,6.22
2023-01-11T02:28:39.409Z,6.15
2023-01-11T02:31:19.628Z,5.80
2023-01-11T02:33:52.106Z,6.05
2023-01-11T02:36:30.531Z,5.97
2023-01-11T02:39:17.519Z,6.22
2023-01-11T02:42:13.329Z,6.75
2023-01-11T02:45:02.818Z,6.70
2023-01-11T02:47:57.433Z,6.55
2023-01-11T02:50:42.302Z,6.60
2023-01-11T02:53:16.554Z,6.60
2023-01-11T02:55:48.522Z,6.75
2023-01-11T02:58:18.354Z,7.07
2023-01-11T03:00:46.471Z,6.13
2023-01-11T03:03:21.889Z,7.22
2023-01-11T03:06:08.703Z,6.97
2023-01-11T03:08:58.469Z,6.32
2023-01-11T03:12:29.522Z,6.28
2023-01-11T03:15:30.979Z,6.00
2023-01-11T03:18:23.938Z,6.40
2023-01-11T03:21:18.462Z,7.47
2023-01-11T03:23:56.991Z,6.07
2023-01-11T03:26:51.794Z,6.25
2023-01-11T03:29:32.420Z,6.53
2023-01-11T03:32:20.819Z,6.63
2023-01-11T03:35:05.485Z,5.80
2023-01-11T03:37:48.947Z,6.85
2023-01-11T03:40:29.363Z,6.30
2023-01-11T03:43:13.918Z,6.88
2023-01-11T03:45:58.741Z,7.18
2023-01-11T03:48:39.869Z,6.40
2023-01-11T03:51:11.947Z,6.40
2023-01-11T03:53:41.061Z,6.47
2023-01-11T03:56:11.781Z,6.22
2023-01-11T03:58:38.796Z,6.43
2023-01-11T04:01:06.091Z,7.47
2023-01-11T04:03:32.959Z,6.07
2023-01-11T04:06:03.013Z,7.22
2023-01-11T04:08:31.216Z,6.78
2023-01-11T04:10:58.131Z,6.38
2023-01-11T04:13:24.843Z,6.47
2023-01-11T04:15:53.507Z,6.85
2023-01-11T04:18:20.183Z,6.95
2023-01-11T04:20:47.075Z,6.80
2023-01-11T04:23:15.141Z,6.70
2023-01-11T04:25:41.816Z,6.80
2023-01-11T04:28:08.529Z,5.95
2023-01-11T04:30:36.042Z,5.72
2023-01-11T04:33:03.133Z,7.00
2023-01-11T04:35:29.849Z,6.22
2023-01-11T04:37:57.569Z,5.72
2023-01-11T04:40:25.581Z,6.25
2023-01-11T04:42:52.321Z,5.93
2023-01-11T04:45:19.530Z,6.35
2023-01-11T04:47:46.302Z,6.53
2023-01-11T04:50:13.169Z,6.70
2023-01-11T04:52:41.551Z,7.07
2023-01-11T04:55:09.552Z,6.80
2023-01-11T04:57:36.409Z,6.55
2023-01-11T05:00:10.648Z,6.45
2023-01-11T05:02:38.411Z,7.03
2023-01-11T05:05:06.980Z,7.35
2023-01-11T05:07:34.296Z,6.60
2023-01-11T05:10:01.059Z,6.22
2023-01-11T05:12:27.705Z,6.13
2023-01-11T05:14:54.637Z,6.90
2023-01-11T05:17:21.294Z,6.75
2023-01-11T05:19:48.003Z,6.30
2023-01-11T05:22:14.981Z,6.68
2023-01-11T05:24:41.665Z,7.35
2023-01-11T05:27:09.200Z,6.93
2023-01-11T05:29:35.879Z,7.05
2023-01-11T05:32:02.558Z,6.72
2023-01-11T05:34:29.300Z,7.50
2023-01-11T05:36:56.028Z,7.30
2023-01-11T05:39:23.903Z,7.40
2023-01-11T05:41:50.668Z,6.95
2023-01-11T05:44:36.735Z,7.00
2023-01-11T05:49:31.103Z,6.03
2023-01-11T05:51:57.867Z,6.60
2023-01-11T05:54:24.886Z,6.40
2023-01-11T05:56:51.667Z,7.45
2023-01-11T05:59:18.609Z,6.78
2023-01-11T06:01:45.371Z,6.82
2023-01-11T06:04:12.105Z,6.72
2023-01-11T06:06:38.964Z,6.97
2023-01-11T06:09:05.799Z,7.35
2023-01-11T06:11:32.599Z,6.38
2023-01-11T06:13:59.391Z,6.30
2023-01-11T06:16:26.177Z,6.45
2023-01-11T06:18:54.257Z,6.78
2023-01-11T06:21:21.916Z,7.72
2023-01-11T06:23:51.019Z,7.18
2023-01-11T06:26:20.643Z,7.28
2023-01-11T06:28:48.066Z,7.30
2023-01-11T06:31:17.143Z,7.45
2023-01-11T06:33:44.885Z,6.75
2023-01-11T06:36:13.134Z,7.40
2023-01-11T06:38:40.265Z,7.28
2023-01-11T06:41:10.652Z,7.50
2023-01-11T06:43:38.716Z,7.40
2023-01-11T06:46:05.712Z,7.70
2023-01-11T06:48:32.565Z,6.80
2023-01-11T06:50:59.814Z,7.60
2023-01-11T06:53:29.135Z,7.30
2023-01-11T06:55:58.298Z,7.45
2023-01-11T06:58:26.250Z,7.22
2023-01-11T07:00:55.214Z,7.45
2023-01-11T07:03:24.375Z,7.90
2023-01-11T07:05:52.925Z,7.20
2023-01-11T07:08:20.237Z,7.95
2023-01-11T07:10:47.230Z,7.82
2023-01-11T07:13:17.632Z,8.50
2023-01-11T07:15:45.534Z,7.57
2023-01-11T07:18:12.420Z,8.20
2023-01-11T07:20:39.762Z,7.65
2023-01-11T07:23:07.717Z,7.30
2023-01-11T07:25:34.952Z,7.57
2023-01-11T07:28:04.718Z,7.88
2023-01-11T07:30:44.591Z,8.75
2023-01-11T07:33:18.887Z,8.35
2023-01-11T07:35:47.890Z,8.98
2023-01-11T07:38:14.733Z,8.05
2023-01-11T07:40:41.997Z,8.80
2023-01-11T07:43:14.332Z,7.75
2023-01-11T07:45:45.889Z,8.27
2023-01-11T07:48:14.038Z,7.95
2023-01-11T07:50:44.599Z,8.18
2023-01-11T07:53:12.305Z,7.78
2023-01-11T07:55:40.159Z,8.00
2023-01-11T07:58:11.430Z,7.88
2023-01-11T08:00:38.687Z,8.10
2023-01-11T08:03:05.557Z,8.05
2023-01-11T08:05:32.629Z,13.50
2023-01-11T08:07:59.381Z,20.90
2023-01-11T08:10:26.112Z,19.80
2023-01-11T08:13:11.546Z,18.33
2023-01-11T08:15:39.064Z,16.17
2023-01-11T08:18:06.498Z,14.52
2023-01-11T08:20:33.451Z,13.73
2023-01-11T08:23:05.163Z,12.95
2023-01-11T08:25:33.300Z,12.50
2023-01-11T08:28:05.404Z,11.82
2023-01-11T08:30:32.303Z,11.20
2023-01-11T08:33:01.659Z,9.57
2023-01-11T08:35:28.832Z,10.18
2023-01-11T08:37:55.507Z,9.88
2023-01-11T08:40:24.202Z,9.75
2023-01-11T08:43:00.197Z,8.52
2023-01-11T08:45:27.496Z,7.53
2023-01-11T08:47:54.841Z,7.30
2023-01-11T08:50:22.775Z,7.00
2023-01-11T08:52:51.156Z,7.00
2023-01-11T08:55:19.038Z,6.80
2023-01-11T08:57:46.261Z,6.88
2023-01-11T09:00:13.794Z,6.95
2023-01-11T09:02:40.765Z,5.32
2023-01-11T09:05:08.056Z,6.10
2023-01-11T09:07:34.826Z,5.05
2023-01-11T09:10:01.597Z,5.28
2023-01-11T09:12:28.382Z,5.68
2023-01-11T09:14:55.135Z,5.07
2023-01-11T09:17:21.952Z,4.70
2023-01-11T09:19:48.733Z,5.38
2023-01-11T09:22:15.596Z,6.28
2023-01-11T09:24:42.337Z,5.55
2023-01-11T09:27:11.499Z,5.60
2023-01-11T09:29:38.420Z,8.27
2023-01-11T09:32:05.957Z,13.77
2023-01-11T09:34:33.464Z,13.52
2023-01-11T09:37:02.627Z,10.68
2023-01-11T09:39:29.683Z,6.80
2023-01-11T09:42:06.200Z,5.93
2023-01-11T09:44:36.653Z,5.45
2023-01-11T09:47:17.654Z,5.70
2023-01-11T09:49:50.937Z,5.70
2023-01-11T09:52:29.981Z,5.90
2023-01-11T09:55:00.413Z,7.90
2023-01-11T09:58:06.703Z,10.07
2023-01-11T10:00:41.940Z,7.80
2023-01-11T10:03:17.488Z,5.57
2023-01-11T10:18:32.894Z,5.57
2023-01-11T10:20:40.898Z,4.72
2023-01-11T10:23:28.737Z,4.32
2023-01-11T10:25:58.806Z,4.82
2023-01-11T10:28:47.117Z,4.85
2023-01-11T10:31:45.713Z,4.70
2023-01-11T10:34:38.597Z,4.45
2023-01-11T10:37:20.837Z,4.18
2023-01-11T10:40:18.419Z,4.15
2023-01-11T10:42:59.966Z,4.22
2023-01-11T10:45:37.372Z,4.38
2023-01-11T10:48:07.469Z,4.40
2023-01-11T10:50:43.910Z,4.35
2023-01-11T10:53:28.330Z,4.45
2023-01-11T10:56:16.241Z,4.40
2023-01-11T10:58:46.449Z,4.68
2023-01-11T11:01:22.618Z,4.70
2023-01-11T11:04:16.640Z,4.80
2023-01-11T11:07:11.575Z,4.80
2023-01-11T11:09:48.321Z,4.78
2023-01-11T11:12:37.196Z,4.32
2023-01-11T11:15:08.804Z,4.75
2023-01-11T11:17:37.932Z,4.88
2023-01-11T11:20:31.908Z,5.13
2023-01-11T11:22:58.984Z,4.47
2023-01-11T11:25:31.171Z,4.50
2023-01-11T11:28:06.706Z,4.60
2023-01-11T11:30:39.261Z,4.65
2023-01-11T11:33:15.185Z,4.68
2023-01-11T11:35:45.755Z,4.55
2023-01-11T11:38:29.028Z,4.88
2023-01-11T11:41:17.227Z,4.95
2023-01-11T11:43:46.450Z,4.70
2023-01-11T11:46:20.334Z,4.82
2023-01-11T11:49:15.756Z,4.85
2023-01-11T11:51:45.520Z,4.93
2023-01-11T11:54:43.573Z,5.00
2023-01-11T11:57:23.376Z,4.63
2023-01-11T11:59:59.591Z,5.00
2023-01-11T12:02:29.701Z,5.13
2023-01-11T12:04:58.305Z,4.93
2023-01-11T12:07:29.349Z,4.95
2023-01-11T12:10:00.914Z,5.28
2023-01-11T12:12:29.488Z,5.35
2023-01-11T12:15:28.835Z,5.65
2023-01-11T12:18:15.399Z,5.47
2023-01-11T12:20:44.665Z,5.22
2023-01-11T12:23:26.117Z,6.05
2023-01-11T12:26:18.950Z,5.47
2023-01-11T12:29:02.864Z,5.90
2023-01-11T12:31:32.893Z,6.10
2023-01-11T12:34:18.390Z,5.60
2023-01-11T12:37:20.539Z,6.45
2023-01-11T12:40:01.914Z,5.70
2023-01-11T12:42:49.981Z,6.68
2023-01-11T12:45:26.829Z,6.43
2023-01-11T12:47:54.583Z,8.10
2023-01-11T12:50:30.591Z,8.18
2023-01-11T12:53:23.529Z,9.05
2023-01-11T12:56:03.742Z,8.32
2023-01-11T12:58:35.970Z,7.70
2023-01-11T13:01:30.429Z,8.23
2023-01-11T13:04:15.484Z,8.80
2023-01-11T13:06:58.898Z,8.77
2023-01-11T13:09:36.379Z,8.45
2023-01-11T13:12:24.792Z,8.32
2023-01-11T13:15:10.055Z,8.75
2023-01-11T13:18:05.347Z,8.27
2023-01-11T13:20:59.462Z,7.22
2023-01-11T13:23:45.600Z,8.20
2023-01-11T13:26:27.725Z,7.80
2023-01-11T13:29:01.014Z,7.47
2023-01-11T13:31:29.100Z,7.93
2023-01-11T13:34:03.482Z,7.93
2023-01-11T13:36:38.675Z,8.35
2023-01-11T13:39:16.159Z,7.65
2023-01-11T13:41:56.855Z,8.43
2023-01-11T13:44:37.974Z,8.43
2023-01-11T13:47:36.776Z,8.48
2023-01-11T13:50:28.041Z,8.02
2023-01-11T13:53:16.953Z,7.40
2023-01-11T13:55:55.168Z,7.72
2023-01-11T13:58:29.037Z,8.05
2023-01-11T14:01:02.097Z,7.82
2023-01-11T14:03:31.225Z,8.18
2023-01-11T14:06:19.175Z,7.40
2023-01-11T14:08:48.680Z,8.38
2023-01-11T14:11:22.348Z,7.60
2023-01-11T14:14:26.060Z,8.27
2023-01-11T14:17:20.544Z,7.70
2023-01-11T14:20:05.430Z,8.25
2023-01-11T14:22:32.185Z,7.30
2023-01-11T14:25:04.452Z,7.43
2023-01-11T14:27:55.271Z,7.13
2023-01-11T14:30:46.987Z,6.97
2023-01-11T14:33:16.783Z,6.72
2023-01-11T14:36:04.768Z,7.13
2023-01-11T14:39:18.914Z,6.82
2023-01-11T14:42:08.587Z,5.90
2023-01-11T14:44:49.837Z,5.63
2023-01-11T14:47:35.101Z,5.70
2023-01-11T14:50:18.640Z,5.40
2023-01-11T14:52:46.072Z,5.30
2023-01-11T14:55:26.968Z,5.95
2023-01-11T14:57:56.409Z,5.68
2023-01-11T15:00:23.082Z,6.15
2023-01-11T15:03:00.347Z,5.75
2023-01-11T15:05:30.959Z,5.93
2023-01-11T15:08:13.291Z,5.68
2023-01-11T15:10:49.408Z,5.47
2023-01-11T15:13:46.365Z,6.25
2023-01-11T15:16:48.121Z,6.50
2023-01-11T15:19:34.149Z,6.45
2023-01-11T15:24:36.849Z,6.38
2023-01-11T15:27:03.948Z,7.10
2023-01-11T15:29:39.167Z,6.53
2023-01-11T15:32:26.127Z,5.88
2023-01-11T15:34:53.180Z,6.30
2023-01-11T15:37:47.992Z,6.35
2023-01-11T15:40:21.988Z,5.88
2023-01-11T15:43:18.471Z,5.80
2023-01-11T15:49:07.574Z,5.53
2023-01-11T15:52:04.726Z,5.95
2023-01-11T15:54:55.858Z,6.00
2023-01-11T15:58:01.310Z,7.28
2023-01-11T16:00:49.385Z,6.65
2023-01-11T16:03:28.205Z,6.35
2023-01-11T16:06:17.684Z,6.30
2023-01-11T16:08:58.548Z,6.78
2023-01-11T16:11:40.436Z,7.20
2023-01-11T16:14:31.991Z,6.45
2023-01-11T16:16:59.082Z,6.22
2023-01-11T16:19:31.237Z,7.13
2023-01-11T16:22:03.493Z,6.30
2023-01-11T16:24:39.361Z,6.57
2023-01-11T16:27:07.566Z,6.40
2023-01-11T16:29:37.127Z,6.60
2023-01-11T16:32:06.159Z,7.47
2023-01-11T16:34:44.906Z,6.95
2023-01-11T16:37:26.474Z,7.53
2023-01-11T16:39:57.839Z,9.60
2023-01-11T16:42:26.593Z,9.65
2023-01-11T16:44:59.421Z,10.32
2023-01-11T16:47:26.230Z,10.10
2023-01-11T16:50:28.834Z,10.50
2023-01-11T16:53:02.315Z,10.25
2023-01-11T16:55:39.940Z,10.77
2023-01-11T16:58:21.339Z,11.25
2023-01-11T17:00:58.910Z,11.02
2023-01-11T17:03:31.236Z,10.45
2023-01-11T17:06:10.248Z,11.13
2023-01-11T17:08:38.263Z,11.52
2023-01-11T17:11:31.553Z,11.23
2023-01-11T17:14:19.337Z,10.80
2023-01-11T17:16:52.746Z,10.13
2023-01-11T17:19:23.231Z,10.20
2023-01-11T17:21:58.631Z,10.82
2023-01-11T17:24:27.055Z,11.32
2023-01-11T17:27:00.296Z,10.25
2023-01-11T17:29:39.553Z,10.70
2023-01-11T17:32:13.056Z,9.73
2023-01-11T17:34:40.317Z,11.13
2023-01-11T17:37:12.683Z,11.02
2023-01-11T17:39:44.477Z,11.88
2023-01-11T17:42:32.723Z,11.50
2023-01-11T17:45:15.717Z,12.27
2023-01-11T17:47:47.538Z,12.07
2023-01-11T17:50:32.245Z,13.00
2023-01-11T17:53:12.614Z,11.68
2023-01-11T17:55:56.731Z,12.90
2023-01-11T17:58:34.474Z,13.13
2023-01-11T18:01:19.164Z,12.38
2023-01-11T18:03:50.301Z,13.10
2023-01-11T18:06:23.019Z,12.70
2023-01-11T18:08:52.895Z,12.90
2023-01-11T18:11:32.367Z,12.35
2023-01-11T18:14:02.492Z,12.15
2023-01-11T18:16:29.480Z,12.25
2023-01-11T18:18:56.864Z,11.98
2023-01-11T18:21:26.533Z,13.18
2023-01-11T18:24:11.425Z,13.68
2023-01-11T18:26:42.862Z,13.93
2023-01-11T18:29:37.676Z,13.80
2023-01-11T18:32:05.826Z,14.07
2023-01-11T18:34:32.590Z,14.55
2023-01-11T18:37:00.690Z,13.93
2023-01-11T18:39:27.796Z,13.75
2023-01-11T18:42:07.233Z,14.02
2023-01-11T18:44:35.163Z,14.27
2023-01-11T18:47:11.085Z,13.43
2023-01-11T18:49:37.833Z,14.13
2023-01-11T18:52:05.452Z,15.02
2023-01-11T18:54:32.441Z,14.80
2023-01-11T18:56:59.224Z,14.18
2023-01-11T18:59:26.140Z,14.60
2023-01-11T19:02:01.557Z,14.25
2023-01-11T19:04:38.711Z,14.20
2023-01-11T19:07:05.573Z,13.25
2023-01-11T19:09:32.318Z,14.15
2023-01-11T19:11:59.038Z,14.40
2023-01-11T19:14:25.793Z,14.40
2023-01-11T19:16:52.566Z,13.18
2023-01-11T19:19:19.389Z,14.05
2023-01-11T19:21:46.125Z,13.48
2023-01-11T19:24:12.791Z,13.02
2023-01-11T19:26:39.562Z,12.95
2023-01-11T19:29:06.475Z,12.93
2023-01-11T19:31:33.315Z,12.95
2023-01-11T19:34:00.049Z,12.77
2023-01-11T19:36:29.143Z,12.63
2023-01-11T19:38:55.883Z,12.02
2023-01-11T19:41:22.581Z,12.82
2023-01-11T19:43:49.643Z,12.15
2023-01-11T19:46:30.166Z,12.30
2023-01-11T19:48:58.180Z,13.10
2023-01-11T19:51:24.843Z,13.15
2023-01-11T19:53:51.672Z,12.73
2023-01-11T19:56:18.681Z,13.35
2023-01-11T19:58:45.391Z,13.95
2023-01-11T20:01:12.893Z,12.93
2023-01-11T20:03:41.679Z,13.15
2023-01-11T20:06:09.168Z,11.90
2023-01-11T20:08:38.558Z,12.65
2023-01-11T20:11:08.046Z,12.07
2023-01-11T20:13:35.337Z,11.50
2023-01-11T20:16:06.850Z,12.68
2023-01-11T20:18:33.907Z,12.57
2023-01-11T20:21:00.718Z,12.38
2023-01-11T20:23:30.480Z,12.05
2023-01-11T20:26:01.967Z,11.98
2023-01-11T20:28:28.730Z,12.35
2023-01-11T20:30:59.677Z,11.82
2023-01-11T20:33:27.476Z,11.90
2023-01-11T20:35:54.212Z,12.50
2023-01-11T20:38:20.903Z,11.77
2023-01-11T20:40:47.695Z,12.18
2023-01-11T20:43:14.407Z,12.35
2023-01-11T20:45:41.133Z,12.25
2023-01-11T20:48:08.037Z,12.07
2023-01-11T20:50:36.177Z,12.68
2023-01-11T20:53:03.623Z,11.40
2023-01-11T20:55:30.648Z,12.23
2023-01-11T20:57:58.428Z,13.00
2023-01-11T21:00:25.458Z,13.60
2023-01-11T21:02:52.341Z,13.98
2023-01-11T21:05:19.116Z,14.07
2023-01-11T21:07:46.897Z,14.07
2023-01-11T21:10:13.655Z,13.20
2023-01-11T21:12:40.333Z,13.50
2023-01-11T21:15:10.505Z,13.50
2023-01-11T21:17:37.987Z,13.55
2023-01-11T21:20:05.356Z,13.32
2023-01-11T21:22:32.023Z,14.13
2023-01-11T21:24:58.785Z,13.52
2023-01-11T21:27:25.719Z,13.55
2023-01-11T21:29:52.448Z,13.98
2023-01-11T21:32:19.299Z,13.15
2023-01-11T21:34:46.022Z,13.95
2023-01-11T21:37:12.699Z,13.93
2023-01-11T21:39:39.896Z,13.95
2023-01-11T21:42:06.605Z,13.98
2023-01-11T21:44:34.073Z,13.88
2023-01-11T21:47:02.651Z,13.80
2023-01-11T21:49:30.036Z,14.82
2023-01-11T21:51:56.847Z,12.73
2023-01-11T21:54:24.054Z,14.95
2023-01-11T21:56:51.737Z,14.60
2023-01-11T21:59:20.263Z,14.10
2023-01-11T22:01:49.512Z,13.82
2023-01-11T22:04:19.009Z,13.98
2023-01-11T22:06:50.995Z,13.30
2023-01-11T22:09:18.698Z,13.98
2023-01-11T22:11:45.812Z,14.35
2023-01-11T22:14:12.865Z,14.20
2023-01-11T22:16:40.669Z,14.45
2023-01-11T22:19:08.463Z,14.60
2023-01-11T22:21:36.685Z,14.85
2023-01-11T22:24:03.596Z,15.18
2023-01-11T22:26:33.322Z,14.48
2023-01-11T22:29:12.636Z,14.32
2023-01-11T22:31:52.503Z,15.07
2023-01-11T22:34:19.708Z,13.70
2023-01-11T22:36:47.152Z,13.93
2023-01-11T22:39:15.146Z,14.02
2023-01-11T22:41:45.654Z,14.48
2023-01-11T22:44:12.731Z,15.30
2023-01-11T22:46:39.786Z,14.50
2023-01-11T22:49:07.076Z,13.70
2023-01-11T22:51:34.162Z,15.07
2023-01-11T22:54:00.882Z,14.60
2023-01-11T22:56:29.340Z,14.38
2023-01-11T22:58:57.154Z,14.88
2023-01-11T23:01:38.561Z,14.38
2023-01-11T23:04:06.706Z,14.60
2023-01-11T23:06:36.438Z,14.70
2023-01-11T23:09:05.686Z,14.27
2023-01-11T23:11:55.393Z,14.13
2023-01-11T23:14:22.660Z,14.35
2023-01-11T23:16:50.575Z,15.25
2023-01-11T23:19:19.947Z,15.48
2023-01-11T23:21:47.689Z,14.80
2023-01-11T23:24:16.367Z,15.80
2023-01-11T23:26:44.295Z,15.75
2023-01-11T23:29:12.019Z,15.48
2023-01-11T23:31:38.804Z,14.27
2023-01-11T23:34:08.180Z,14.95
2023-01-11T23:36:37.600Z,14.70
2023-01-11T23:39:06.051Z,15.23
2023-01-11T23:41:51.312Z,15.40
2023-01-11T23:44:18.602Z,15.65
2023-01-11T23:47:04.932Z,16.95
2023-01-11T23:49:32.557Z,15.85
2023-01-11T23:51:59.989Z,16.75
2023-01-11T23:54:31.967Z,14.52
2023-01-11T23:57:00.068Z,16.17
2023-01-11T23:59:27.080Z,15.52
